createdAt,value
2023-01-26T05:08:36.743Z,101326.44
2023-01-26T05:11:04.959Z,101331.66
2023-01-26T05:13:50.843Z,101339.19
2023-01-26T05:16:26.970Z,101344.81
2023-01-26T05:19:23.291Z,101349.91
2023-01-26T05:21:58.744Z,101351.72
2023-01-26T05:24:26.765Z,101357.81
2023-01-26T05:27:18.612Z,101356.91
2023-01-26T05:29:50.731Z,101346.63
2023-01-26T05:32:20.981Z,101360.19
2023-01-26T05:34:50.934Z,101353.94
2023-01-26T05:37:20.230Z,101351.72
2023-01-26T05:39:47.653Z,101348.97
2023-01-26T05:42:14.996Z,101340.38
2023-01-26T05:44:51.226Z,101350.72
2023-01-26T05:47:19.098Z,101351.31
2023-01-26T05:49:49.413Z,101353.44
2023-01-26T05:52:25.794Z,101350.28
2023-01-26T05:54:53.280Z,101346.06
2023-01-26T05:57:20.912Z,101344.06
2023-01-26T05:59:53.862Z,101334.47
2023-01-26T06:02:21.658Z,101347.16
2023-01-26T06:04:49.721Z,101342.03
2023-01-26T06:07:17.416Z,101359.88
2023-01-26T06:10:04.071Z,101355.72
2023-01-26T06:12:48.748Z,101360.34
2023-01-26T06:15:34.972Z,101345.34
2023-01-26T06:18:03.732Z,101350.34
2023-01-26T06:20:31.366Z,101339.34
2023-01-26T06:23:01.553Z,101345.63
2023-01-26T06:25:32.431Z,101350.03
2023-01-26T06:27:59.777Z,101343.13
2023-01-26T06:30:29.004Z,101336.25
2023-01-26T06:33:01.176Z,101334.31
2023-01-26T06:35:29.765Z,101331.56
2023-01-26T06:38:01.682Z,101327.53
2023-01-26T06:40:28.978Z,101323.69
2023-01-26T06:42:56.346Z,101329.91
2023-01-26T06:45:24.130Z,101324.28
2023-01-26T06:47:52.522Z,101317.44
2023-01-26T06:50:25.149Z,101319.88
2023-01-26T06:52:56.532Z,101320.56
2023-01-26T06:55:42.620Z,101311.66
2023-01-26T06:58:28.451Z,101304.75
2023-01-26T07:01:21.045Z,101305.91
2023-01-26T07:03:53.413Z,101306.47
2023-01-26T07:06:21.141Z,101306.06
2023-01-26T07:08:48.545Z,101305.06
2023-01-26T07:11:17.279Z,101297.84
2023-01-26T07:13:44.753Z,101305.72
2023-01-26T07:16:14.486Z,101317.91
2023-01-26T07:18:42.028Z,101321.34
2023-01-26T07:21:15.537Z,101325.25
2023-01-26T07:23:42.877Z,101316.59
2023-01-26T07:26:10.262Z,101315.53
2023-01-26T07:28:40.198Z,101301.72
2023-01-26T07:31:08.960Z,101306.63
2023-01-26T07:33:36.317Z,101313.81
2023-01-26T07:36:04.592Z,101302.56
2023-01-26T07:38:33.334Z,101309.53
2023-01-26T07:41:06.136Z,101312.34
2023-01-26T07:43:35.606Z,101312.63
2023-01-26T07:46:04.181Z,101310.47
2023-01-26T07:48:33.087Z,101309.78
2023-01-26T07:51:02.532Z,101321.78
2023-01-26T07:53:34.048Z,101314.75
2023-01-26T07:56:16.175Z,101321.28
2023-01-26T07:58:44.004Z,101312.00
2023-01-26T08:01:15.439Z,101317.53
2023-01-26T08:03:45.551Z,101309.84
2023-01-26T08:06:15.335Z,101306.75
2023-01-26T08:08:43.537Z,101311.00
2023-01-26T08:11:12.173Z,101310.56
2023-01-26T08:13:39.696Z,101308.97
2023-01-26T08:16:12.215Z,101310.81
2023-01-26T08:18:42.011Z,101312.19
2023-01-26T08:21:11.650Z,101317.44
2023-01-26T08:23:39.327Z,101312.97
2023-01-26T08:26:10.936Z,101312.66
2023-01-26T08:28:39.236Z,101312.22
2023-01-26T08:31:12.107Z,101321.28
2023-01-26T08:33:42.008Z,101316.38
2023-01-26T08:36:15.117Z,101318.41
2023-01-26T08:38:43.205Z,101317.78
2023-01-26T08:41:11.750Z,101322.59
2023-01-26T08:43:39.577Z,101320.84
2023-01-26T08:46:07.444Z,101321.47
2023-01-26T08:48:34.896Z,101319.91
2023-01-26T08:51:04.644Z,101306.81
2023-01-26T08:53:33.671Z,101309.34
2023-01-26T08:56:02.252Z,101313.75
2023-01-26T08:58:30.102Z,101314.47
2023-01-26T09:00:57.527Z,101322.00
2023-01-26T09:03:25.417Z,101319.53
2023-01-26T09:05:52.722Z,101319.38
2023-01-26T09:08:19.973Z,101321.75
2023-01-26T09:10:47.339Z,101310.44
2023-01-26T09:13:14.697Z,101312.16
2023-01-26T09:15:42.113Z,101312.38
2023-01-26T09:18:11.405Z,101312.69
2023-01-26T09:20:39.292Z,101308.94
2023-01-26T09:23:07.682Z,101314.16
2023-01-26T09:25:39.681Z,101320.69
2023-01-26T09:28:06.970Z,101319.59
2023-01-26T09:30:34.412Z,101317.03
2023-01-26T09:33:05.741Z,101309.41
2023-01-26T09:35:33.265Z,101319.22
2023-01-26T09:38:00.589Z,101321.13
2023-01-26T09:40:55.910Z,101320.84
2023-01-26T09:43:41.601Z,101316.50
2023-01-26T09:46:23.672Z,101315.25
2023-01-26T09:48:59.838Z,101324.63
2023-01-26T09:51:41.506Z,101327.78
2023-01-26T09:54:18.181Z,101327.69
2023-01-26T09:56:46.214Z,101322.69
2023-01-26T09:59:38.374Z,101321.13
2023-01-26T10:02:29.149Z,101315.53
2023-01-26T10:05:01.873Z,101317.72
2023-01-26T10:07:29.208Z,101316.19
2023-01-26T10:09:57.360Z,101312.44
2023-01-26T10:12:30.432Z,101311.44
2023-01-26T10:15:27.565Z,101305.38
2023-01-26T10:17:56.638Z,101294.06
2023-01-26T10:20:29.925Z,101291.19
2023-01-26T10:23:16.031Z,101293.69
2023-01-26T10:25:47.026Z,101287.28
2023-01-26T10:28:16.144Z,101286.28
2023-01-26T10:30:45.781Z,101277.75
2023-01-26T10:33:34.736Z,101271.97
2023-01-26T10:36:04.573Z,101267.31
2023-01-26T10:38:37.928Z,101264.28
2023-01-26T10:41:14.770Z,101265.28
2023-01-26T10:43:43.365Z,101258.03
2023-01-26T10:46:30.318Z,101262.69
2023-01-26T10:49:04.016Z,101260.28
2023-01-26T10:51:33.978Z,101257.41
2023-01-26T10:54:14.941Z,101241.13
2023-01-26T10:56:52.001Z,101246.25
2023-01-26T10:59:36.257Z,101246.06
2023-01-26T11:02:21.409Z,101243.41
2023-01-26T11:05:01.997Z,101235.09
2023-01-26T11:07:34.951Z,101242.38
2023-01-26T11:10:35.993Z,101229.97
2023-01-26T11:13:22.530Z,101220.44
2023-01-26T11:16:02.974Z,101220.03
2023-01-26T11:18:58.078Z,101218.41
2023-01-26T11:21:32.128Z,101213.34
2023-01-26T11:24:21.170Z,101210.97
2023-01-26T11:27:22.536Z,101198.59
2023-01-26T11:30:11.963Z,101193.59
2023-01-26T11:33:03.689Z,101193.00
2023-01-26T11:35:49.256Z,101183.75
2023-01-26T11:38:32.552Z,101172.72
2023-01-26T11:41:10.069Z,101170.00
2023-01-26T11:44:08.329Z,101161.28
2023-01-26T11:46:47.914Z,101164.25
2023-01-26T11:49:30.482Z,101155.72
2023-01-26T11:52:04.469Z,101148.94
2023-01-26T11:54:36.211Z,101144.53
2023-01-26T11:57:12.554Z,101145.09
2023-01-26T11:59:48.559Z,101136.75
2023-01-26T12:02:28.092Z,101122.63
2023-01-26T12:05:03.345Z,101126.78
2023-01-26T12:07:51.314Z,101117.31
2023-01-26T12:10:26.135Z,101123.34
2023-01-26T12:13:06.304Z,101118.63
2023-01-26T12:15:38.887Z,101107.56
2023-01-26T12:18:17.572Z,101099.88
2023-01-26T12:20:53.930Z,101095.28
2023-01-26T12:23:21.885Z,101084.34
2023-01-26T12:25:58.993Z,101096.56
2023-01-26T12:28:36.401Z,101083.84
2023-01-26T12:31:06.815Z,101081.81
2023-01-26T12:33:36.487Z,101086.97
2023-01-26T12:36:17.940Z,101078.09
2023-01-26T12:38:58.954Z,101072.22
2023-01-26T12:41:39.205Z,101066.97
2023-01-26T12:44:15.545Z,101065.63
2023-01-26T12:46:48.180Z,101066.38
2023-01-26T12:49:28.636Z,101051.81
2023-01-26T12:52:05.142Z,101051.84
2023-01-26T12:54:50.581Z,101052.50
2023-01-26T12:57:22.568Z,101047.03
2023-01-26T12:59:51.179Z,101048.53
2023-01-26T13:02:31.713Z,101042.31
2023-01-26T13:05:01.916Z,101039.72
2023-01-26T13:07:38.481Z,101031.69
2023-01-26T13:10:08.524Z,101033.63
2023-01-26T13:13:02.050Z,101021.53
2023-01-26T13:15:32.497Z,101020.03
2023-01-26T13:18:02.605Z,101020.88
2023-01-26T13:20:50.136Z,101020.97
2023-01-26T13:23:40.331Z,101020.88
2023-01-26T13:26:32.581Z,101019.34
2023-01-26T13:29:18.345Z,101022.47
2023-01-26T13:31:45.687Z,101004.56
2023-01-26T13:34:19.813Z,101003.25
2023-01-26T13:36:51.245Z,101001.72
2023-01-26T13:39:41.424Z,100996.41
2023-01-26T13:42:19.370Z,100990.50
2023-01-26T13:44:55.037Z,100985.31
2023-01-26T13:47:28.353Z,100988.44
2023-01-26T13:49:55.696Z,100992.47
2023-01-26T13:52:26.294Z,100993.06
2023-01-26T13:54:57.898Z,100998.25
2023-01-26T13:57:28.460Z,100991.81
2023-01-26T13:59:59.029Z,100992.44
2023-01-26T14:02:34.011Z,100981.03
2023-01-26T14:05:02.608Z,100987.00
2023-01-26T14:07:39.126Z,100985.53
2023-01-26T14:10:07.828Z,100975.75
2023-01-26T14:12:39.966Z,100980.84
2023-01-26T14:15:20.354Z,100974.91
2023-01-26T14:17:56.891Z,100980.88
2023-01-26T14:20:37.050Z,100980.94
2023-01-26T14:23:07.654Z,100982.09
2023-01-26T14:25:35.321Z,100974.81
2023-01-26T14:28:03.182Z,100978.66
2023-01-26T14:30:34.829Z,100980.53
2023-01-26T14:33:08.531Z,100982.03
2023-01-26T14:35:35.903Z,100971.59
2023-01-26T14:38:12.927Z,100974.81
2023-01-26T14:40:52.013Z,100980.44
2023-01-26T14:43:20.192Z,100980.59
2023-01-26T14:46:04.096Z,100990.06
2023-01-26T14:48:57.467Z,100984.03
2023-01-26T14:51:26.985Z,100987.88
2023-01-26T14:53:58.951Z,100984.59
2023-01-26T14:56:40.626Z,100975.09
2023-01-26T14:59:14.773Z,100974.00
2023-01-26T15:01:42.282Z,100979.19
2023-01-26T15:04:24.823Z,100975.19
2023-01-26T15:06:52.209Z,100963.63
2023-01-26T15:09:29.094Z,100970.63
2023-01-26T15:12:17.994Z,100968.34
2023-01-26T15:14:45.676Z,100974.28
2023-01-26T15:17:31.253Z,100973.19
2023-01-26T15:19:59.029Z,100970.81
2023-01-26T15:22:27.067Z,100962.38
2023-01-26T15:25:16.955Z,100959.31
2023-01-26T15:28:09.302Z,100967.59
2023-01-26T15:30:37.715Z,100968.16
2023-01-26T15:33:05.485Z,100961.75
2023-01-26T15:35:34.800Z,100964.44
2023-01-26T15:38:10.589Z,100963.53
2023-01-26T15:40:38.805Z,100964.97
2023-01-26T15:43:17.612Z,100964.81
2023-01-26T15:45:54.408Z,100967.03
2023-01-26T15:48:22.893Z,100964.00
2023-01-26T15:50:50.851Z,100975.19
2023-01-26T15:53:20.360Z,100969.97
2023-01-26T15:55:58.671Z,100971.19
2023-01-26T15:58:26.544Z,100970.03
2023-01-26T16:00:53.848Z,100966.53
2023-01-26T16:03:22.397Z,100970.59
2023-01-26T16:05:50.483Z,100963.13
2023-01-26T16:08:19.257Z,100964.66
2023-01-26T16:10:46.834Z,100950.47
2023-01-26T16:13:18.107Z,100957.56
2023-01-26T16:15:51.786Z,100953.03
2023-01-26T16:18:20.287Z,100958.78
2023-01-26T16:20:49.173Z,100949.16
2023-01-26T16:23:22.941Z,100955.06
2023-01-26T16:25:51.313Z,100951.31
2023-01-26T16:28:19.504Z,100955.03
2023-01-26T16:30:48.353Z,100950.97
2023-01-26T16:33:21.093Z,100954.16
2023-01-26T16:35:48.512Z,100952.63
2023-01-26T16:38:15.938Z,100956.50
2023-01-26T16:40:45.147Z,100951.91
2023-01-26T16:43:23.329Z,100956.44
2023-01-26T16:45:52.558Z,100954.78
2023-01-26T16:48:20.649Z,100960.31
2023-01-26T16:50:52.923Z,100955.88
2023-01-26T16:53:27.892Z,100957.91
2023-01-26T16:55:55.372Z,100959.19
2023-01-26T16:58:26.576Z,100958.97
2023-01-26T17:00:57.122Z,100951.69
2023-01-26T17:03:25.331Z,100950.66
2023-01-26T17:05:52.809Z,100957.88
2023-01-26T17:08:20.630Z,100961.53
2023-01-26T17:11:01.193Z,100963.75
2023-01-26T17:13:31.187Z,100963.75
2023-01-26T17:15:58.834Z,100953.13
2023-01-26T17:18:26.176Z,100963.75
2023-01-26T17:20:53.496Z,100964.41
2023-01-26T17:23:21.296Z,100968.38
2023-01-26T17:25:48.819Z,100969.06
2023-01-26T17:28:16.765Z,100977.16
2023-01-26T17:30:45.040Z,100973.63
2023-01-26T17:33:12.335Z,100972.22
2023-01-26T17:35:39.754Z,100977.63
2023-01-26T17:38:07.495Z,100978.72
2023-01-26T17:40:36.716Z,100995.06
2023-01-26T17:43:04.081Z,100989.44
2023-01-26T17:45:31.350Z,100991.41
2023-01-26T17:47:58.748Z,100988.56
2023-01-26T17:50:26.180Z,100993.19
2023-01-26T17:52:53.551Z,100993.56
2023-01-26T17:55:20.925Z,100995.97
2023-01-26T17:57:48.288Z,101000.75
2023-01-26T18:00:16.997Z,100997.53
2023-01-26T18:02:44.657Z,100992.50
2023-01-26T18:05:12.852Z,101001.91
2023-01-26T18:07:40.269Z,101006.63
2023-01-26T18:10:08.442Z,101005.63
2023-01-26T18:12:37.657Z,101007.59
2023-01-26T18:15:05.409Z,101008.94
2023-01-26T18:17:33.169Z,101004.38
2023-01-26T18:20:00.581Z,101009.47
2023-01-26T18:22:27.805Z,101008.38
2023-01-26T18:24:55.587Z,101009.09
2023-01-26T18:27:23.443Z,101005.16
2023-01-26T18:29:51.313Z,101003.97
2023-01-26T18:32:18.614Z,100999.47
2023-01-26T18:34:46.440Z,101003.22
2023-01-26T18:37:14.414Z,101008.38
2023-01-26T18:39:41.776Z,101002.41
2023-01-26T18:42:09.401Z,101010.97
2023-01-26T18:44:36.681Z,101000.75
2023-01-26T18:47:04.832Z,101006.69
2023-01-26T18:49:32.249Z,101005.28
2023-01-26T18:51:59.700Z,101001.78
2023-01-26T18:54:27.186Z,100995.50
2023-01-26T18:56:54.722Z,101001.09
2023-01-26T18:59:22.398Z,100999.22
2023-01-26T19:01:51.072Z,101001.03
2023-01-26T19:04:19.005Z,101002.31
2023-01-26T19:06:47.700Z,101001.69
2023-01-26T19:09:15.338Z,101008.00
2023-01-26T19:11:42.702Z,101010.22
2023-01-26T19:14:10.532Z,101015.72
2023-01-26T19:16:38.664Z,101016.81
2023-01-26T19:19:06.074Z,101016.38
2023-01-26T19:21:34.159Z,101023.25
2023-01-26T19:24:05.716Z,101016.31
2023-01-26T19:26:33.483Z,101018.34
2023-01-26T19:29:01.493Z,101009.72
2023-01-26T19:31:29.052Z,101014.38
2023-01-26T19:33:59.365Z,101019.91
2023-01-26T19:36:28.820Z,101013.50
2023-01-26T19:38:56.718Z,101012.50
2023-01-26T19:41:24.758Z,101014.75
2023-01-26T19:43:52.389Z,101018.75
2023-01-26T19:46:20.738Z,101022.03
2023-01-26T19:48:48.749Z,101014.81
2023-01-26T19:51:18.889Z,101020.34
2023-01-26T19:53:48.892Z,101016.94
2023-01-26T19:56:20.237Z,101016.78
2023-01-26T19:58:52.601Z,101012.69
2023-01-26T20:01:21.438Z,101016.78
2023-01-26T20:03:55.626Z,101016.50
2023-01-26T20:06:25.851Z,101019.19
2023-01-26T20:08:55.283Z,101020.97
2023-01-26T20:11:25.221Z,101024.81
2023-01-26T20:13:58.317Z,101019.59
2023-01-26T20:16:29.187Z,101020.75
2023-01-26T20:18:57.809Z,101024.13
2023-01-26T20:21:26.781Z,101019.34
2023-01-26T20:23:55.995Z,101031.88
2023-01-26T20:26:25.953Z,101032.47
2023-01-26T20:28:56.204Z,101029.78
2023-01-26T20:31:26.088Z,101035.03
2023-01-26T20:33:54.610Z,101037.97
2023-01-26T20:36:27.261Z,101037.13
2023-01-26T20:38:55.136Z,101044.22
2023-01-26T20:41:28.912Z,101032.47
2023-01-26T20:44:01.984Z,101035.63
2023-01-26T20:46:36.318Z,101026.44
2023-01-26T20:49:05.052Z,101027.97
2023-01-26T20:51:35.667Z,101034.75
2023-01-26T20:54:06.424Z,101039.72
2023-01-26T20:56:35.601Z,101029.91
2023-01-26T20:59:04.327Z,101038.75
2023-01-26T21:01:34.239Z,101031.44
2023-01-26T21:04:02.301Z,101032.63
2023-01-26T21:06:30.360Z,101028.22
2023-01-26T21:08:59.522Z,101025.41
2023-01-26T21:11:30.373Z,101025.66
2023-01-26T21:14:01.129Z,101027.97
2023-01-26T21:16:30.007Z,101027.25
2023-01-26T21:18:58.203Z,101028.25
2023-01-26T21:21:25.692Z,101026.22
2023-01-26T21:23:53.381Z,101025.69
2023-01-26T21:26:25.286Z,101027.69
2023-01-26T21:28:54.865Z,101026.69
2023-01-26T21:31:25.233Z,101026.66
2023-01-26T21:33:53.658Z,101018.03
2023-01-26T21:36:26.586Z,101026.50
2023-01-26T21:38:57.382Z,101014.81
2023-01-26T21:41:45.913Z,101018.91
2023-01-26T21:44:20.961Z,101010.88
2023-01-26T21:46:51.060Z,101013.53
2023-01-26T21:49:18.894Z,101013.69
2023-01-26T21:52:04.870Z,101012.53
2023-01-26T21:54:33.441Z,101012.38
2023-01-26T21:57:01.812Z,101024.84
2023-01-26T21:59:30.525Z,101022.84
2023-01-26T22:01:58.703Z,101019.88
2023-01-26T22:04:30.806Z,101022.72
2023-01-26T22:06:58.243Z,101021.72
2023-01-26T22:09:25.548Z,101025.66
2023-01-26T22:11:52.839Z,101030.28
2023-01-26T22:14:24.898Z,101025.53
2023-01-26T22:16:52.306Z,101027.13
2023-01-26T22:19:19.782Z,101031.72
2023-01-26T22:21:48.194Z,101021.13
2023-01-26T22:24:15.868Z,101022.72
2023-01-26T22:26:43.710Z,101024.03
2023-01-26T22:29:13.072Z,101022.47
2023-01-26T22:31:41.679Z,101023.97
2023-01-26T22:34:11.347Z,101022.03
2023-01-26T22:36:40.082Z,101019.66
2023-01-26T22:39:08.052Z,101014.38
2023-01-26T22:41:36.050Z,101007.16
2023-01-26T22:44:04.143Z,101008.97
2023-01-26T22:46:32.862Z,101012.31
